Time;durP1;ratioP1;P1;durP2;ratioP2;P2;SDS_P1;SDS_P2;PMS_P1;PMS_P2;Temp;Humidity;BMP_temperature;BMP_pressure;BME280_temperature;BME280_humidity;BME280_pressure;Samples;Min_cycle;Max_cycle;Signal;HPM_P1;HPM_P2
2021/08/18 00:00:28;;;;;;;10.73;7.28;;;;;;;15.59;90.75;101508.00;4993390;28;20382;-55
2021/08/18 00:02:56;;;;;;;9.00;5.85;;;;;;;15.58;90.85;101503.59;4993046;28;20041;-56
2021/08/18 00:05:25;;;;;;;10.85;5.57;;;;;;;15.58;90.32;101511.84;4993089;28;20108;-53
2021/08/18 00:07:54;;;;;;;7.35;5.18;;;;;;;15.57;90.48;101504.72;4992988;28;20066;-55
2021/08/18 00:10:23;;;;;;;9.98;6.15;;;;;;;15.56;90.62;101503.06;4993120;28;20055;-56
2021/08/18 00:12:50;;;;;;;7.28;4.75;;;;;;;15.55;90.30;101507.75;4992605;28;20039;-55
2021/08/18 00:15:19;;;;;;;7.85;4.65;;;;;;;15.54;90.70;101505.28;4992598;28;20627;-55
2021/08/18 00:17:47;;;;;;;8.55;5.63;;;;;;;15.52;90.89;101513.00;4993034;28;20133;-55
2021/08/18 00:20:15;;;;;;;8.13;5.53;;;;;;;15.51;91.07;101503.94;4991324;28;20110;-56
2021/08/18 00:22:43;;;;;;;9.02;5.30;;;;;;;15.49;90.96;101508.03;4992827;28;20052;-56
2021/08/18 00:25:11;;;;;;;8.98;5.85;;;;;;;15.49;91.18;101508.03;4992443;28;20042;-54
2021/08/18 00:27:39;;;;;;;9.98;5.82;;;;;;;15.48;91.50;101509.97;4992828;28;20039;-54
2021/08/18 00:30:07;;;;;;;8.50;5.80;;;;;;;15.47;91.60;101504.78;4992943;28;20034;-56
2021/08/18 00:32:35;;;;;;;8.32;5.53;;;;;;;15.51;91.52;101505.84;4992563;28;20046;-56
2021/08/18 00:35:03;;;;;;;12.60;5.65;;;;;;;15.54;91.18;101505.28;4992657;28;20409;-55
2021/08/18 00:37:30;;;;;;;10.43;5.70;;;;;;;15.54;91.02;101500.63;4992715;28;20050;-57
2021/08/18 00:39:58;;;;;;;9.35;5.68;;;;;;;15.55;91.07;101501.44;4992109;28;20051;-54
2021/08/18 00:42:26;;;;;;;9.63;6.18;;;;;;;15.55;91.19;101504.19;4989499;28;20046;-55
2021/08/18 00:44:54;;;;;;;7.68;5.35;;;;;;;15.55;91.18;101502.25;4991351;28;20050;-54
2021/08/18 00:47:22;;;;;;;10.25;6.25;;;;;;;15.55;91.50;101496.75;4992833;28;20038;-56
2021/08/18 00:49:50;;;;;;;8.40;5.97;;;;;;;15.56;91.43;101500.31;4992751;28;20031;-57
2021/08/18 00:52:17;;;;;;;9.93;6.18;;;;;;;15.57;91.22;101493.72;4993764;28;20046;-58
2021/08/18 00:54:51;;;;;;;7.25;5.28;;;;;;;15.58;91.57;101500.03;4995840;28;20117;-55
2021/08/18 00:57:19;;;;;;;10.93;6.28;;;;;;;15.57;91.50;101490.16;4996387;28;20125;-54
2021/08/18 00:59:47;;;;;;;11.38;5.88;;;;;;;15.56;91.37;101497.56;4996022;28;20046;-56
2021/08/18 01:02:15;;;;;;;8.98;5.93;;;;;;;15.56;91.41;101489.31;4996490;28;20529;-55
2021/08/18 01:05:11;;;;;;;9.38;6.07;;;;;;;15.59;91.75;101491.53;4994847;28;20053;-57
2021/08/18 01:07:39;;;;;;;9.10;5.97;;;;;;;15.58;91.64;101498.09;4996055;28;20412;-58
2021/08/18 01:10:11;;;;;;;8.35;5.72;;;;;;;15.58;91.69;101489.88;4995949;28;20040;-58
2021/08/18 01:12:40;;;;;;;8.02;5.40;;;;;;;15.59;91.61;101496.19;4996323;28;20142;-57
2021/08/18 01:15:11;;;;;;;9.00;5.68;;;;;;;15.59;91.74;101491.53;4995481;28;20509;-56
2021/08/18 01:17:41;;;;;;;10.98;6.00;;;;;;;15.59;91.53;101483.28;4996321;28;20039;-55
2021/08/18 01:20:28;;;;;;;15.68;6.35;;;;;;;15.62;91.35;101501.13;4995738;28;20517;-56
2021/08/18 01:22:57;;;;;;;9.85;6.00;;;;;;;15.60;91.69;101501.38;4995731;28;20039;-58
2021/08/18 01:25:25;;;;;;;8.68;6.03;;;;;;;15.58;91.78;101505.53;4995874;28;20038;-55
2021/08/18 01:27:56;;;;;;;10.13;6.28;;;;;;;15.56;91.53;101508.56;4996108;28;20481;-55
2021/08/18 01:30:25;;;;;;;10.57;5.72;;;;;;;15.54;91.88;101505.28;4995925;28;20039;-55
2021/08/18 01:33:01;;;;;;;8.32;4.75;;;;;;;15.54;91.91;101494.31;4995839;28;20046;-57
2021/08/18 01:35:34;;;;;;;9.65;5.72;;;;;;;15.54;91.73;101500.63;4995426;28;20049;-57
2021/08/18 01:38:04;;;;;;;9.10;5.57;;;;;;;15.55;91.63;101502.25;4995404;28;20035;-55
2021/08/18 01:40:32;;;;;;;7.65;5.20;;;;;;;15.54;91.61;101505.28;4995951;28;20445;-55
2021/08/18 01:43:00;;;;;;;7.40;4.75;;;;;;;15.53;91.94;101507.19;4995581;28;20401;-56
2021/08/18 01:45:31;;;;;;;6.90;4.82;;;;;;;15.54;92.33;101505.28;4995302;28;20512;-55
2021/08/18 01:48:18;;;;;;;11.20;4.53;;;;;;;15.55;92.07;101498.69;4995369;28;20057;-55
2021/08/18 01:50:47;;;;;;;7.78;4.80;;;;;;;15.57;92.33;101493.72;4995043;28;20050;-55
2021/08/18 01:53:47;;;;;;;8.25;4.65;;;;;;;15.59;92.17;101494.28;4995191;28;20054;-56
2021/08/18 01:56:19;;;;;;;7.00;4.57;;;;;;;15.60;91.87;101493.16;4989859;28;20057;-55
2021/08/18 01:58:49;;;;;;;9.32;5.10;;;;;;;15.63;92.21;101498.06;4976170;28;20137;-55
2021/08/18 02:01:18;;;;;;;8.25;4.50;;;;;;;15.66;91.89;101491.22;4989627;28;20136;-56
2021/08/18 02:03:47;;;;;;;8.70;4.70;;;;;;;15.66;92.10;101492.03;4994534;28;20038;-59
2021/08/18 02:06:14;;;;;;;15.02;4.97;;;;;;;15.66;91.50;101489.28;4995792;28;20042;-57
2021/08/18 02:08:42;;;;;;;10.18;5.15;;;;;;;15.66;91.58;101494.78;4996738;28;20054;-57
2021/08/18 02:11:10;;;;;;;7.90;4.85;;;;;;;15.65;91.82;101487.63;4997693;28;20049;-55
2021/08/18 02:13:38;;;;;;;9.20;4.88;;;;;;;15.60;91.57;101495.91;4998641;28;20053;-57
2021/08/18 02:16:06;;;;;;;7.45;4.78;;;;;;;15.58;92.18;101495.34;4995436;28;20058;-57
2021/08/18 02:18:34;;;;;;;9.23;4.40;;;;;;;15.58;92.19;101500.84;4995039;28;20042;-58
2021/08/18 02:21:01;;;;;;;7.35;4.22;;;;;;;15.59;92.24;101497.00;4994536;28;20046;-61
2021/08/18 02:23:29;;;;;;;7.22;4.20;;;;;;;15.58;92.22;101494.53;4995088;28;20049;-59
2021/08/18 02:25:56;;;;;;;9.55;4.80;;;;;;;15.56;92.39;101503.06;4994609;28;20052;-59
2021/08/18 02:28:24;;;;;;;5.97;3.42;;;;;;;15.58;92.03;101500.84;4995003;28;20117;-56
2021/08/18 02:30:52;;;;;;;9.82;4.50;;;;;;;15.58;92.11;101498.09;4994706;28;20049;-58
2021/08/18 02:33:24;;;;;;;5.90;4.07;;;;;;;15.59;92.02;101491.53;4994899;28;20097;-58
2021/08/18 02:35:52;;;;;;;6.25;3.70;;;;;;;15.64;91.86;101493.41;4993970;28;20053;-58
2021/08/18 02:38:20;;;;;;;6.95;3.85;;;;;;;15.67;91.72;101490.91;4994708;28;20118;-57
2021/08/18 02:40:47;;;;;;;6.72;4.10;;;;;;;15.65;91.83;101486.81;4994531;28;20039;-57
2021/08/18 02:43:15;;;;;;;9.00;5.13;;;;;;;15.61;91.59;101497.56;4994551;28;20042;-58
2021/08/18 02:45:43;;;;;;;8.93;4.82;;;;;;;15.57;91.96;101490.97;4994338;28;20054;-58
2021/08/18 02:48:10;;;;;;;5.10;3.45;;;;;;;15.59;91.59;101497.00;4994452;28;20493;-59
2021/08/18 02:50:38;;;;;;;9.75;4.00;;;;;;;15.57;91.90;101488.22;4993924;28;20043;-59
2021/08/18 02:53:05;;;;;;;8.05;4.50;;;;;;;15.59;91.91;101479.72;4994432;28;20050;-59
2021/08/18 02:55:34;;;;;;;9.68;4.53;;;;;;;15.60;92.18;101487.66;4994306;28;20057;-59
2021/08/18 02:58:02;;;;;;;10.38;4.53;;;;;;;15.60;92.22;101478.59;4994297;28;20058;-59
2021/08/18 03:00:30;;;;;;;6.07;3.83;;;;;;;15.61;91.75;101481.06;5025847;28;20493;-58
2021/08/18 03:02:58;;;;;;;5.80;3.65;;;;;;;15.63;91.71;101476.09;4993901;28;20034;-59
2021/08/18 03:05:27;;;;;;;4.97;3.20;;;;;;;15.67;91.63;101476.34;4993701;28;20097;-59
2021/08/18 03:08:27;;;;;;;7.45;4.35;;;;;;;15.71;91.61;101460.97;4933840;29;20152;-58
2021/08/18 03:10:55;;;;;;;6.43;4.13;;;;;;;15.70;91.26;101468.38;4933989;29;20047;-59
2021/08/18 03:13:22;;;;;;;8.45;4.40;;;;;;;15.70;91.77;101470.31;4933774;29;20048;-57
2021/08/18 03:15:50;;;;;;;6.40;3.90;;;;;;;15.70;91.55;101475.81;4932664;28;20229;-58
2021/08/18 03:18:17;;;;;;;10.45;4.78;;;;;;;15.69;91.81;101479.63;4933346;29;20501;-58
2021/08/18 03:20:45;;;;;;;7.40;4.05;;;;;;;15.67;91.74;101488.16;4933203;29;20055;-59
2021/08/18 03:23:12;;;;;;;9.98;4.57;;;;;;;15.66;91.84;101489.28;4933368;29;20060;-57
2021/08/18 03:25:40;;;;;;;10.07;4.80;;;;;;;15.64;91.76;101486.00;4954002;28;20057;-57
2021/08/18 03:28:08;;;;;;;9.15;4.53;;;;;;;15.62;91.73;101490.94;4993475;28;20508;-58
2021/08/18 03:30:35;;;;;;;7.43;4.90;;;;;;;15.63;91.71;101489.00;4993549;28;20513;-58
2021/08/18 03:33:03;;;;;;;8.20;4.32;;;;;;;15.63;92.16;101500.81;4989144;28;20069;-59
2021/08/18 03:35:30;;;;;;;10.90;4.03;;;;;;;15.66;91.86;101492.03;4992509;28;20034;-59
2021/08/18 03:37:58;;;;;;;9.23;4.47;;;;;;;15.67;92.20;101492.84;4993317;28;20042;-57
2021/08/18 03:40:26;;;;;;;10.93;5.65;;;;;;;15.69;91.93;101491.44;4993569;28;20049;-57
2021/08/18 03:42:53;;;;;;;9.15;4.57;;;;;;;15.68;92.17;101499.97;4993277;28;20038;-59
2021/08/18 03:45:21;;;;;;;8.13;4.50;;;;;;;15.67;92.35;101488.16;4993176;28;20106;-59
2021/08/18 03:47:49;;;;;;;9.88;4.75;;;;;;;15.68;92.20;101489.81;4993002;28;20034;-59
2021/08/18 03:50:16;;;;;;;9.52;5.38;;;;;;;15.67;92.35;101499.16;4993046;28;20057;-59
2021/08/18 03:52:44;;;;;;;9.23;4.78;;;;;;;15.68;92.13;101494.47;4993244;28;20050;-59
2021/08/18 03:55:13;;;;;;;7.88;4.55;;;;;;;15.68;91.78;101489.81;4993276;28;20035;-59
2021/08/18 03:57:41;;;;;;;8.85;4.60;;;;;;;15.68;92.20;101497.22;4992931;28;20046;-59
2021/08/18 04:00:09;;;;;;;7.40;4.88;;;;;;;15.68;92.05;101489.81;4993381;28;20045;-59
2021/08/18 04:02:37;;;;;;;10.18;5.03;;;;;;;15.67;92.45;101488.16;4992424;28;20046;-58
2021/08/18 04:05:05;;;;;;;8.65;5.00;;;;;;;15.70;92.56;101487.59;4993265;28;20054;-58
2021/08/18 04:07:33;;;;;;;9.15;4.80;;;;;;;15.74;92.18;101482.38;4992909;28;20493;-59
2021/08/18 04:10:02;;;;;;;8.13;4.22;;;;;;;15.76;91.75;101478.22;4992813;28;20042;-59
2021/08/18 04:12:30;;;;;;;8.63;4.95;;;;;;;15.76;91.78;101480.16;5008124;28;20053;-59
2021/08/18 04:14:58;;;;;;;10.60;4.95;;;;;;;15.77;91.69;101482.59;4992489;28;20042;-58
2021/08/18 04:17:25;;;;;;;8.98;5.22;;;;;;;15.75;91.96;101479.34;4988073;28;20046;-58
2021/08/18 04:19:53;;;;;;;10.82;5.38;;;;;;;15.73;91.73;101481.56;4989697;28;20049;-57
2021/08/18 04:22:20;;;;;;;12.57;5.53;;;;;;;15.72;91.77;101490.88;4992859;28;20073;-58
2021/08/18 04:24:48;;;;;;;9.50;4.55;;;;;;;15.72;91.78;101492.81;4992917;28;20406;-60
2021/08/18 04:27:15;;;;;;;9.25;5.20;;;;;;;15.71;92.16;101494.75;4988321;28;20058;-57
2021/08/18 04:29:43;;;;;;;11.13;5.13;;;;;;;15.72;92.20;101495.56;4986566;28;20050;-59
2021/08/18 04:32:10;;;;;;;8.35;5.10;;;;;;;15.69;92.08;101499.69;4992280;28;20050;-58
2021/08/18 04:34:38;;;;;;;8.90;5.38;;;;;;;15.63;92.36;101509.06;4992731;28;20042;-59
2021/08/18 04:37:06;;;;;;;8.35;4.90;;;;;;;15.59;92.18;101513.50;4992396;28;20046;-59
2021/08/18 04:39:33;;;;;;;8.88;5.20;;;;;;;15.57;92.60;101507.47;4992805;28;20050;-59
2021/08/18 04:42:01;;;;;;;9.25;5.00;;;;;;;15.57;93.01;101510.22;4992760;28;20045;-59
2021/08/18 04:44:29;;;;;;;9.25;4.97;;;;;;;15.57;93.37;101503.91;4992404;28;20054;-57
2021/08/18 04:46:56;;;;;;;7.90;4.97;;;;;;;15.56;92.77;101503.06;4992076;28;20057;-59
2021/08/18 04:49:24;;;;;;;9.60;4.78;;;;;;;15.58;92.90;101506.34;4992473;28;20043;-58
2021/08/18 04:51:51;;;;;;;8.60;4.45;;;;;;;15.59;92.82;101507.19;4992686;28;20042;-59
2021/08/18 04:54:19;;;;;;;14.00;5.43;;;;;;;15.62;93.02;101496.44;4992363;28;20512;-58
2021/08/18 04:56:46;;;;;;;8.15;4.55;;;;;;;15.62;93.01;101496.44;4992482;28;20045;-58
2021/08/18 04:59:14;;;;;;;8.10;4.88;;;;;;;15.61;93.16;101494.81;4992278;28;20048;-59
2021/08/18 05:01:41;;;;;;;8.55;4.78;;;;;;;15.63;93.18;101492.56;4992159;28;20046;-57
2021/08/18 05:04:09;;;;;;;8.93;4.85;;;;;;;15.66;93.27;101488.47;4992344;28;20126;-60
2021/08/18 05:06:37;;;;;;;6.72;4.38;;;;;;;15.68;92.66;101488.97;4992300;28;20366;-59
2021/08/18 05:09:04;;;;;;;11.85;4.68;;;;;;;15.70;92.99;101487.59;4992476;28;20042;-59
2021/08/18 05:11:32;;;;;;;8.07;4.07;;;;;;;15.73;92.49;101487.06;5007378;28;20055;-59
2021/08/18 05:14:00;;;;;;;9.30;4.97;;;;;;;15.73;92.36;101484.31;4992162;28;20052;-59
2021/08/18 05:16:27;;;;;;;9.35;4.53;;;;;;;15.75;92.50;101479.34;4991755;28;20047;-59
2021/08/18 05:18:55;;;;;;;10.30;5.18;;;;;;;15.72;92.23;101487.34;4992626;28;20566;-59
2021/08/18 05:21:22;;;;;;;8.02;4.70;;;;;;;15.72;92.32;101479.91;4992039;28;20039;-58
2021/08/18 05:23:50;;;;;;;11.02;5.28;;;;;;;15.72;92.39;101477.16;4990354;28;20050;-56
2021/08/18 05:26:17;;;;;;;10.77;5.10;;;;;;;15.71;92.59;101478.28;4978169;28;20039;-58
2021/08/18 05:28:45;;;;;;;9.20;4.60;;;;;;;15.73;92.90;101476.06;4982579;28;20114;-59
2021/08/18 05:31:13;;;;;;;10.80;5.20;;;;;;;15.75;92.83;101475.75;4977763;28;20498;-56
2021/08/18 05:33:40;;;;;;;7.97;5.03;;;;;;;15.76;92.75;101475.47;4981742;28;20038;-57
2021/08/18 05:36:12;;;;;;;8.43;5.10;;;;;;;15.75;92.36;101479.34;4983946;28;20047;-59
2021/08/18 05:38:40;;;;;;;10.43;4.78;;;;;;;15.77;92.48;101479.03;4979584;28;20039;-59
2021/08/18 05:41:08;;;;;;;9.43;5.57;;;;;;;15.80;92.39;101483.16;4982657;28;20054;-59
2021/08/18 05:43:35;;;;;;;10.35;4.45;;;;;;;15.84;92.14;101481.47;4981808;28;20045;-59
2021/08/18 05:46:03;;;;;;;8.25;4.35;;;;;;;15.85;92.03;101488.59;4983763;28;20130;-59
2021/08/18 05:48:31;;;;;;;8.18;5.30;;;;;;;15.84;92.79;101486.97;4981423;28;20043;-58
2021/08/18 05:50:59;;;;;;;9.48;5.72;;;;;;;15.83;92.23;101488.09;4995212;28;20047;-58
2021/08/18 05:53:26;;;;;;;8.23;4.85;;;;;;;15.82;92.31;101486.44;4995234;28;20046;-58
2021/08/18 05:55:54;;;;;;;7.68;5.03;;;;;;;15.81;92.87;101487.56;4994960;28;20118;-58
2021/08/18 05:58:31;;;;;;;9.69;5.17;;;;;;;15.83;92.80;101490.84;4643472;28;10003504;-58
2021/08/18 06:00:59;;;;;;;10.50;5.55;;;;;;;15.81;92.41;101482.06;4988193;28;20047;-58
2021/08/18 06:03:27;;;;;;;9.88;5.80;;;;;;;15.81;92.99;101482.06;4993373;28;20051;-58
2021/08/18 06:05:54;;;;;;;7.95;5.55;;;;;;;15.81;92.84;101484.81;4992205;28;20125;-57
2021/08/18 06:08:22;;;;;;;9.63;5.45;;;;;;;15.82;92.80;101478.19;4992986;28;20046;-59
2021/08/18 06:10:49;;;;;;;10.35;6.03;;;;;;;15.84;93.15;101486.97;4992618;28;20046;-58
2021/08/18 06:13:17;;;;;;;8.10;5.50;;;;;;;15.85;93.32;101483.94;4992976;28;20145;-58
2021/08/18 06:15:45;;;;;;;9.32;6.22;;;;;;;15.87;92.93;101489.13;4994374;28;20054;-61
2021/08/18 06:18:12;;;;;;;10.30;6.32;;;;;;;15.87;93.34;101486.38;4994612;28;20045;-60
2021/08/18 06:20:40;;;;;;;12.48;7.45;;;;;;;15.87;93.39;101484.44;4995067;28;20375;-61
2021/08/18 06:23:08;;;;;;;8.77;5.65;;;;;;;15.88;93.25;101490.78;4994087;28;20034;-59
2021/08/18 06:25:35;;;;;;;10.85;7.43;;;;;;;15.89;93.19;101489.66;4994774;28;20049;-60
2021/08/18 06:28:03;;;;;;;12.15;7.05;;;;;;;15.90;93.66;101491.31;4994273;28;20053;-60
2021/08/18 06:30:31;;;;;;;11.40;7.30;;;;;;;15.91;93.58;101492.97;4994766;28;20051;-59
2021/08/18 06:32:58;;;;;;;11.30;7.28;;;;;;;15.92;93.37;101495.44;4994868;28;20504;-60
2021/08/18 06:35:34;;;;;;;10.60;7.90;;;;;;;15.92;93.65;101489.94;4993765;28;20049;-60
2021/08/18 06:38:02;;;;;;;8.60;5.93;;;;;;;15.93;93.51;101491.56;4994330;28;20041;-60
2021/08/18 06:40:29;;;;;;;12.30;6.93;;;;;;;15.95;93.58;101489.34;4994560;28;20046;-61
2021/08/18 06:42:57;;;;;;;11.48;7.10;;;;;;;16.00;92.69;101491.22;4993933;28;20038;-60
2021/08/18 06:45:25;;;;;;;12.98;7.63;;;;;;;16.04;92.68;101494.22;4994154;28;20054;-59
2021/08/18 06:47:52;;;;;;;15.05;8.73;;;;;;;16.05;92.94;101499.44;4994566;28;20034;-57
2021/08/18 06:50:20;;;;;;;14.80;7.00;;;;;;;16.06;92.69;101503.81;4994216;28;20054;-57
2021/08/18 06:52:48;;;;;;;13.07;8.38;;;;;;;16.08;92.44;101503.53;4994206;28;20038;-57
2021/08/18 06:55:16;;;;;;;12.73;7.60;;;;;;;16.09;92.70;101500.50;4994244;28;20046;-57
2021/08/18 06:57:44;;;;;;;10.10;7.38;;;;;;;16.11;92.08;101501.00;4993905;28;20401;-60
2021/08/18 07:00:12;;;;;;;14.15;9.02;;;;;;;16.08;92.83;101498.84;4994060;28;20042;-58
2021/08/18 07:02:45;;;;;;;15.65;9.52;;;;;;;16.13;92.87;101500.72;4993859;28;20523;-60
2021/08/18 07:05:15;;;;;;;12.30;7.57;;;;;;;16.13;93.07;101496.03;4993823;28;20038;-60
2021/08/18 07:07:43;;;;;;;18.40;9.98;;;;;;;16.12;93.28;101502.66;4993820;28;20046;-58
2021/08/18 07:10:11;;;;;;;16.58;10.48;;;;;;;16.13;93.29;101504.28;4993956;28;20049;-59
2021/08/18 07:12:39;;;;;;;16.35;10.13;;;;;;;16.14;93.27;101503.19;4993650;28;20053;-56
2021/08/18 07:15:07;;;;;;;15.02;9.70;;;;;;;16.14;93.27;101497.72;4993311;28;20059;-56
2021/08/18 07:17:35;;;;;;;12.88;9.55;;;;;;;16.16;93.83;101505.66;4993781;28;20093;-58
2021/08/18 07:20:03;;;;;;;13.35;8.50;;;;;;;16.23;92.99;101503.38;4993499;28;20042;-59
2021/08/18 07:22:32;;;;;;;14.30;10.07;;;;;;;16.24;93.39;101507.78;4993586;28;20042;-60
2021/08/18 07:24:59;;;;;;;15.25;9.25;;;;;;;16.24;93.71;101507.78;4993308;28;20049;-59
2021/08/18 07:27:28;;;;;;;12.30;7.32;;;;;;;16.26;93.47;101507.47;4993569;28;20054;-60
2021/08/18 07:29:57;;;;;;;13.18;8.95;;;;;;;16.27;93.57;101506.38;4993612;28;20030;-57
2021/08/18 07:32:27;;;;;;;12.95;8.93;;;;;;;16.29;93.50;101498.66;4993629;28;20046;-53
2021/08/18 07:34:54;;;;;;;15.32;7.78;;;;;;;16.30;92.98;101501.13;4993235;28;20402;-54
2021/08/18 07:37:23;;;;;;;10.77;7.15;;;;;;;16.33;93.18;101502.47;4993580;28;20058;-57
2021/08/18 07:39:50;;;;;;;15.00;8.80;;;;;;;16.37;92.48;101501.59;4993325;28;20042;-57
2021/08/18 07:42:18;;;;;;;13.57;9.10;;;;;;;16.40;92.52;101498.28;4984979;28;20046;-54
2021/08/18 07:44:45;;;;;;;9.88;6.65;;;;;;;16.43;92.53;101496.88;4988368;28;20047;-56
2021/08/18 07:47:13;;;;;;;9.75;6.53;;;;;;;16.47;91.21;101503.41;4989737;28;20421;-58
2021/08/18 07:49:40;;;;;;;14.43;8.40;;;;;;;16.49;91.88;101492.94;4992177;28;20389;-57
2021/08/18 07:52:08;;;;;;;12.00;8.35;;;;;;;16.49;92.16;101503.94;4992888;28;20050;-55
2021/08/18 07:54:36;;;;;;;13.45;9.00;;;;;;;16.50;91.94;101494.59;4992590;28;20050;-55
2021/08/18 07:57:03;;;;;;;12.38;8.10;;;;;;;16.51;91.66;101496.22;4993359;28;20030;-53
2021/08/18 07:59:31;;;;;;;12.60;8.30;;;;;;;16.53;91.76;101505.03;4992837;28;20436;-56
2021/08/18 08:01:59;;;;;;;11.73;7.68;;;;;;;16.55;91.79;101497.28;4992703;28;20046;-59
2021/08/18 08:04:28;;;;;;;15.77;9.77;;;;;;;16.56;91.60;101495.34;4992644;28;20409;-56
2021/08/18 08:06:55;;;;;;;10.85;7.70;;;;;;;16.56;91.50;101501.69;4993007;28;20050;-55
2021/08/18 08:09:23;;;;;;;10.43;4.90;;;;;;;16.62;90.43;101499.72;4992323;28;20043;-55
2021/08/18 08:11:51;;;;;;;13.18;9.00;;;;;;;16.64;91.45;101502.97;5024452;28;20049;-55
2021/08/18 08:14:18;;;;;;;11.73;8.38;;;;;;;16.69;91.01;101502.09;4992812;28;20066;-57
2021/08/18 08:16:46;;;;;;;11.73;8.55;;;;;;;16.70;90.37;101510.06;4992597;28;20060;-56
2021/08/18 08:19:13;;;;;;;14.50;9.55;;;;;;;16.69;90.68;101505.69;4992849;28;20125;-57
2021/08/18 08:21:41;;;;;;;12.73;9.75;;;;;;;16.68;90.51;101501.28;4992578;28;20050;-55
2021/08/18 08:24:09;;;;;;;13.48;9.88;;;;;;;16.67;90.51;101498.81;4992325;28;20046;-54
2021/08/18 08:26:36;;;;;;;11.75;7.75;;;;;;;16.73;89.06;101498.47;4992881;28;20052;-58
2021/08/18 08:29:04;;;;;;;15.38;9.40;;;;;;;16.72;90.00;101499.59;4993031;28;20042;-61
2021/08/18 08:31:31;;;;;;;12.05;9.20;;;;;;;16.73;89.63;101498.47;4992787;28;20038;-61
2021/08/18 08:33:59;;;;;;;14.65;9.55;;;;;;;16.74;90.02;101494.63;4992942;28;20113;-60
2021/08/18 08:36:27;;;;;;;11.57;8.57;;;;;;;16.78;90.03;101489.31;4992751;28;20052;-56
2021/08/18 08:38:56;;;;;;;12.85;9.43;;;;;;;16.82;89.92;101495.91;4992279;28;20043;-57
2021/08/18 08:41:23;;;;;;;10.82;8.77;;;;;;;16.83;90.01;101492.03;4992626;28;20038;-59
2021/08/18 08:43:52;;;;;;;13.02;9.73;;;;;;;16.85;89.82;101495.31;4992321;28;20045;-58
2021/08/18 08:46:20;;;;;;;10.07;8.43;;;;;;;16.87;89.03;101498.59;4992783;28;20173;-55
2021/08/18 08:48:48;;;;;;;15.02;7.72;;;;;;;16.91;88.04;101494.16;4992448;28;20070;-55
2021/08/18 08:51:16;;;;;;;11.45;6.20;;;;;;;16.95;87.84;101495.19;4984770;28;20062;-53
2021/08/18 08:53:43;;;;;;;15.80;8.98;;;;;;;16.99;87.61;101499.00;4979343;28;20038;-55
2021/08/18 08:56:11;;;;;;;12.60;9.77;;;;;;;16.98;87.67;101502.88;4978223;28;20027;-57
2021/08/18 08:58:39;;;;;;;12.02;9.02;;;;;;;16.99;88.08;101500.94;4975649;28;20047;-58
2021/08/18 09:01:06;;;;;;;13.80;9.32;;;;;;;17.02;87.35;101503.91;4977664;28;20035;-59
2021/08/18 09:03:35;;;;;;;9.57;6.47;;;;;;;17.08;87.43;101495.59;4987391;28;20050;-56
2021/08/18 09:06:06;;;;;;;11.73;8.68;;;;;;;17.16;86.71;101495.75;4976236;28;20105;-50
2021/08/18 09:08:46;;;;;;;11.40;7.57;;;;;;;17.18;85.38;101500.97;4976478;28;20121;-50
2021/08/18 09:11:15;;;;;;;10.93;8.10;;;;;;;17.17;85.25;101502.91;4984166;28;20512;-57
2021/08/18 09:13:52;;;;;;;10.38;7.00;;;;;;;17.25;83.87;101495.94;4990632;28;20093;-59
2021/08/18 09:16:22;;;;;;;11.70;7.25;;;;;;;17.26;84.33;101500.31;4991540;28;20053;-60
2021/08/18 09:18:54;;;;;;;8.52;5.63;;;;;;;17.26;84.52;101497.56;4992265;28;20039;-60
2021/08/18 09:21:36;;;;;;;8.75;6.93;;;;;;;17.29;84.05;101494.19;4987942;28;20050;-58
2021/08/18 09:24:15;;;;;;;8.13;5.30;;;;;;;17.33;83.70;101498.00;4992913;28;20034;-59
2021/08/18 09:26:55;;;;;;;7.80;5.40;;;;;;;17.35;83.55;101492.22;4990270;28;20046;-61
2021/08/18 09:29:48;;;;;;;8.52;6.00;;;;;;;17.39;83.37;101491.31;4993246;28;20046;-60
2021/08/18 09:32:31;;;;;;;11.38;7.40;;;;;;;17.42;83.25;101503.69;4986648;28;20046;-60
2021/08/18 09:35:10;;;;;;;15.13;6.53;;;;;;;17.43;83.50;101483.25;4979124;28;20066;-57
2021/08/18 09:37:40;;;;;;;8.80;5.30;;;;;;;17.49;83.29;101486.78;4977461;28;20041;-60
2021/08/18 09:40:47;;;;;;;9.70;6.57;;;;;;;17.53;83.52;101498.81;4978979;28;20039;-57
2021/08/18 09:43:16;;;;;;;8.85;6.53;;;;;;;17.53;82.65;101488.59;4993218;28;20054;-53
2021/08/18 09:45:45;;;;;;;8.90;5.57;;;;;;;17.55;82.04;101496.59;4992828;28;20050;-54
2021/08/18 09:48:18;;;;;;;8.93;4.78;;;;;;;17.51;82.04;101495.53;4993164;28;20050;-56
2021/08/18 09:50:53;;;;;;;8.02;4.70;;;;;;;17.55;82.25;101493.84;4985092;28;20122;-54
2021/08/18 09:53:35;;;;;;;11.88;6.40;;;;;;;17.48;82.97;101485.94;4983682;28;20131;-55
2021/08/18 09:56:10;;;;;;;4.32;2.80;;;;;;;17.50;82.08;101489.22;4992868;28;20046;-51
2021/08/18 09:58:49;;;;;;;7.90;5.30;;;;;;;17.56;82.46;101487.22;4993166;28;20444;-55
2021/08/18 10:01:18;;;;;;;7.20;4.40;;;;;;;17.63;82.62;101484.88;4993030;28;20413;-55
2021/08/18 10:03:48;;;;;;;5.57;3.85;;;;;;;17.83;81.72;101483.78;4992628;28;20069;-56
2021/08/18 10:06:17;;;;;;;9.10;6.20;;;;;;;17.86;82.08;101474.91;4986665;28;20043;-50
2021/08/18 10:08:49;;;;;;;7.95;5.60;;;;;;;17.82;80.19;101474.69;4985351;28;20428;-50
2021/08/18 10:11:17;;;;;;;6.88;4.80;;;;;;;17.74;79.80;101483.59;4993006;28;20052;-57
2021/08/18 10:13:45;;;;;;;4.43;3.05;;;;;;;17.73;79.62;101475.66;4994546;28;20153;-52
2021/08/18 10:16:16;;;;;;;7.03;4.25;;;;;;;17.72;79.15;101485.03;4992363;28;20069;-52
2021/08/18 10:18:50;;;;;;;6.22;3.85;;;;;;;17.68;78.21;101487.59;4993208;28;20489;-57
2021/08/18 10:21:30;;;;;;;8.95;5.45;;;;;;;17.65;78.57;101485.41;4988147;28;20101;-56
2021/08/18 10:24:08;;;;;;;6.50;4.50;;;;;;;17.70;78.03;101488.06;4990193;28;20082;-57
2021/08/18 10:26:36;;;;;;;6.20;4.30;;;;;;;17.74;78.40;101474.53;4989975;28;20030;-57
2021/08/18 10:29:13;;;;;;;5.85;4.22;;;;;;;17.70;78.58;101477.06;4990144;28;20046;-51
2021/08/18 10:31:46;;;;;;;8.45;5.10;;;;;;;17.73;78.85;101481.97;4989595;28;20054;-53
2021/08/18 10:34:23;;;;;;;8.55;5.50;;;;;;;17.65;79.26;101485.41;4988907;28;20524;-51
2021/08/18 10:36:56;;;;;;;8.02;5.38;;;;;;;17.59;80.06;101481.09;4985477;28;20050;-54
2021/08/18 10:39:24;;;;;;;7.80;5.40;;;;;;;17.56;80.95;101492.72;4988998;28;20056;-53
2021/08/18 10:42:16;;;;;;;8.50;5.18;;;;;;;17.52;81.13;101488.94;4985366;28;20049;-53
2021/08/18 10:44:52;;;;;;;7.43;5.07;;;;;;;17.43;81.11;101484.06;4987883;28;20137;-52
2021/08/18 10:47:32;;;;;;;7.43;5.35;;;;;;;17.39;82.13;101483.06;4989067;28;20596;-51
2021/08/18 10:50:13;;;;;;;7.13;4.47;;;;;;;17.40;81.73;101489.38;4989707;28;20045;-55
2021/08/18 10:52:43;;;;;;;8.95;6.95;;;;;;;17.39;84.03;101498.75;4995065;28;20089;-56
2021/08/18 10:55:11;;;;;;;12.82;6.50;;;;;;;17.33;84.37;101484.22;4994828;28;20047;-55
2021/08/18 10:57:40;;;;;;;9.88;6.03;;;;;;;17.23;84.45;101487.13;4994388;28;20050;-53
2021/08/18 11:00:14;;;;;;;9.38;6.00;;;;;;;17.21;85.22;101481.09;4994376;28;20050;-56
2021/08/18 11:02:51;;;;;;;9.07;6.85;;;;;;;17.18;85.86;101487.22;4993675;28;20046;-53
2021/08/18 11:05:41;;;;;;;9.27;6.40;;;;;;;17.19;86.30;101478.63;4993784;28;20038;-52
2021/08/18 11:08:22;;;;;;;9.77;6.22;;;;;;;17.27;86.15;101474.41;4993769;28;20057;-54
2021/08/18 11:10:55;;;;;;;7.28;4.68;;;;;;;17.32;85.91;101471.59;4992732;28;20056;-53
2021/08/18 11:13:51;;;;;;;8.82;5.47;;;;;;;17.40;85.42;101473.66;4992511;28;20046;-57
2021/08/18 11:16:31;;;;;;;;;;;;;;;17.46;85.25;101466.97;4993738;28;20480;-53
2021/08/18 11:19:07;;;;;;;9.27;5.10;;;;;;;17.52;85.61;101464.13;4993518;28;19925;-52
2021/08/18 11:21:36;;;;;;;7.25;5.43;;;;;;;17.55;85.83;101477.31;4993802;28;20062;-52
2021/08/18 11:24:10;;;;;;;9.18;6.20;;;;;;;17.55;86.01;101463.53;4993642;28;20042;-50
2021/08/18 11:26:40;;;;;;;9.23;6.13;;;;;;;17.57;85.66;101467.63;5008583;28;20057;-54
2021/08/18 11:29:11;;;;;;;9.70;6.32;;;;;;;17.61;85.58;101465.09;4993504;28;20497;-50
2021/08/18 11:31:50;;;;;;;8.38;5.22;;;;;;;17.67;85.59;101461.94;4993016;28;20043;-56
2021/08/18 11:34:31;;;;;;;11.30;8.02;;;;;;;17.70;85.88;101465.22;4993466;28;20061;-57